sensor_id;sensor_type;location;lat;lon;timestamp;temperature;humidity
72380;SHT30;60354;47.798;12.472;2024-03-08T00:00:05;1.28;83.03
72380;SHT30;60354;47.798;12.472;2024-03-08T00:02:37;1.33;83.36
72380;SHT30;60354;47.798;12.472;2024-03-08T00:05:04;1.48;83.01
72380;SHT30;60354;47.798;12.472;2024-03-08T00:07:30;1.45;82.94
72380;SHT30;60354;47.798;12.472;2024-03-08T00:09:55;1.38;82.51
72380;SHT30;60354;47.798;12.472;2024-03-08T00:12:23;1.28;83.41
72380;SHT30;60354;47.798;12.472;2024-03-08T00:14:50;1.27;84.53
72380;SHT30;60354;47.798;12.472;2024-03-08T00:17:15;1.24;83.89
72380;SHT30;60354;47.798;12.472;2024-03-08T00:19:41;1.17;84.14
72380;SHT30;60354;47.798;12.472;2024-03-08T00:22:06;1.24;83.79
72380;SHT30;60354;47.798;12.472;2024-03-08T00:24:33;1.28;82.24
72380;SHT30;60354;47.798;12.472;2024-03-08T00:26:58;1.16;82.83
72380;SHT30;60354;47.798;12.472;2024-03-08T00:29:24;1.01;82.34
72380;SHT30;60354;47.798;12.472;2024-03-08T00:31:50;1.04;83.61
72380;SHT30;60354;47.798;12.472;2024-03-08T00:34:15;1.10;82.92
72380;SHT30;60354;47.798;12.472;2024-03-08T00:36:41;1.12;83.24
72380;SHT30;60354;47.798;12.472;2024-03-08T00:39:06;1.10;83.50
72380;SHT30;60354;47.798;12.472;2024-03-08T00:41:32;1.12;83.42
72380;SHT30;60354;47.798;12.472;2024-03-08T00:43:58;1.27;82.56
72380;SHT30;60354;47.798;12.472;2024-03-08T00:46:23;1.19;82.77
72380;SHT30;60354;47.798;12.472;2024-03-08T00:48:49;1.19;82.94
72380;SHT30;60354;47.798;12.472;2024-03-08T00:51:14;1.26;83.44
72380;SHT30;60354;47.798;12.472;2024-03-08T00:53:43;1.07;83.74
72380;SHT30;60354;47.798;12.472;2024-03-08T00:56:08;1.12;84.02
72380;SHT30;60354;47.798;12.472;2024-03-08T00:58:37;1.20;83.15
72380;SHT30;60354;47.798;12.472;2024-03-08T01:01:03;1.10;83.14
72380;SHT30;60354;47.798;12.472;2024-03-08T01:03:32;1.00;81.93
72380;SHT30;60354;47.798;12.472;2024-03-08T01:05:59;0.93;82.49
72380;SHT30;60354;47.798;12.472;2024-03-08T01:08:26;0.90;81.54
72380;SHT30;60354;47.798;12.472;2024-03-08T01:10:53;0.86;80.90
72380;SHT30;60354;47.798;12.472;2024-03-08T01:13:18;0.90;82.03
72380;SHT30;60354;47.798;12.472;2024-03-08T01:15:45;0.79;82.60
72380;SHT30;60354;47.798;12.472;2024-03-08T01:18:11;0.69;83.26
72380;SHT30;60354;47.798;12.472;2024-03-08T01:20:37;0.64;83.27
72380;SHT30;60354;47.798;12.472;2024-03-08T01:23:02;0.65;82.99
72380;SHT30;60354;47.798;12.472;2024-03-08T01:25:28;0.62;82.19
72380;SHT30;60354;47.798;12.472;2024-03-08T01:27:54;0.73;83.81
72380;SHT30;60354;47.798;12.472;2024-03-08T01:30:19;0.70;81.82
72380;SHT30;60354;47.798;12.472;2024-03-08T01:32:45;0.56;81.20
72380;SHT30;60354;47.798;12.472;2024-03-08T01:35:10;0.52;83.21
72380;SHT30;60354;47.798;12.472;2024-03-08T01:37:36;0.49;84.50
72380;SHT30;60354;47.798;12.472;2024-03-08T01:40:02;0.45;83.01
72380;SHT30;60354;47.798;12.472;2024-03-08T01:42:28;0.52;82.72
72380;SHT30;60354;47.798;12.472;2024-03-08T01:44:54;0.56;82.37
72380;SHT30;60354;47.798;12.472;2024-03-08T01:47:21;0.41;83.18
72380;SHT30;60354;47.798;12.472;2024-03-08T01:49:49;0.44;82.91
72380;SHT30;60354;47.798;12.472;2024-03-08T01:52:16;0.42;82.78
72380;SHT30;60354;47.798;12.472;2024-03-08T01:54:44;0.44;83.15
72380;SHT30;60354;47.798;12.472;2024-03-08T01:57:10;0.49;83.81
72380;SHT30;60354;47.798;12.472;2024-03-08T01:59:36;0.37;81.66
72380;SHT30;60354;47.798;12.472;2024-03-08T02:02:03;0.40;82.58
72380;SHT30;60354;47.798;12.472;2024-03-08T02:04:30;0.48;83.02
72380;SHT30;60354;47.798;12.472;2024-03-08T02:06:56;0.56;83.39
72380;SHT30;60354;47.798;12.472;2024-03-08T02:09:23;0.42;83.04
72380;SHT30;60354;47.798;12.472;2024-03-08T02:11:50;0.56;82.01
72380;SHT30;60354;47.798;12.472;2024-03-08T02:14:17;0.49;84.85
72380;SHT30;60354;47.798;12.472;2024-03-08T02:16:44;0.48;83.56
72380;SHT30;60354;47.798;12.472;2024-03-08T02:19:09;0.52;83.49
72380;SHT30;60354;47.798;12.472;2024-03-08T02:21:35;0.56;80.64
72380;SHT30;60354;47.798;12.472;2024-03-08T02:24:01;0.52;82.49
72380;SHT30;60354;47.798;12.472;2024-03-08T02:26:27;0.37;82.31
72380;SHT30;60354;47.798;12.472;2024-03-08T02:28:53;0.35;83.21
72380;SHT30;60354;47.798;12.472;2024-03-08T02:31:18;0.32;81.53
72380;SHT30;60354;47.798;12.472;2024-03-08T02:33:43;0.22;82.66
72380;SHT30;60354;47.798;12.472;2024-03-08T02:36:09;0.31;82.08
72380;SHT30;60354;47.798;12.472;2024-03-08T02:38:35;0.35;81.93
72380;SHT30;60354;47.798;12.472;2024-03-08T02:41:00;0.18;82.90
72380;SHT30;60354;47.798;12.472;2024-03-08T02:43:25;0.19;83.23
72380;SHT30;60354;47.798;12.472;2024-03-08T02:45:51;0.18;82.66
72380;SHT30;60354;47.798;12.472;2024-03-08T02:48:18;0.15;83.48
72380;SHT30;60354;47.798;12.472;2024-03-08T02:50:44;0.14;82.13
72380;SHT30;60354;47.798;12.472;2024-03-08T02:53:10;0.05;82.45
72380;SHT30;60354;47.798;12.472;2024-03-08T02:55:39;0.14;82.79
72380;SHT30;60354;47.798;12.472;2024-03-08T02:58:07;0.14;81.41
72380;SHT30;60354;47.798;12.472;2024-03-08T03:00:36;0.10;83.66
72380;SHT30;60354;47.798;12.472;2024-03-08T03:03:01;0.07;82.57
72380;SHT30;60354;47.798;12.472;2024-03-08T03:05:28;-0.03;82.25
72380;SHT30;60354;47.798;12.472;2024-03-08T03:07:55;0.11;82.59
72380;SHT30;60354;47.798;12.472;2024-03-08T03:10:20;0.21;81.84
72380;SHT30;60354;47.798;12.472;2024-03-08T03:12:47;0.13;81.39
72380;SHT30;60354;47.798;12.472;2024-03-08T03:15:14;-0.11;82.45
72380;SHT30;60354;47.798;12.472;2024-03-08T03:17:40;0.07;81.92
72380;SHT30;60354;47.798;12.472;2024-03-08T03:20:07;-0.14;82.17
72380;SHT30;60354;47.798;12.472;2024-03-08T03:22:36;-0.05;82.20
72380;SHT30;60354;47.798;12.472;2024-03-08T03:25:02;-0.14;81.29
72380;SHT30;60354;47.798;12.472;2024-03-08T03:27:29;-0.06;82.58
72380;SHT30;60354;47.798;12.472;2024-03-08T03:29:55;-0.13;82.57
72380;SHT30;60354;47.798;12.472;2024-03-08T03:32:23;-0.14;82.45
72380;SHT30;60354;47.798;12.472;2024-03-08T03:34:49;-0.24;83.14
72380;SHT30;60354;47.798;12.472;2024-03-08T03:37:18;-0.18;83.07
72380;SHT30;60354;47.798;12.472;2024-03-08T03:39:45;0.01;81.50
72380;SHT30;60354;47.798;12.472;2024-03-08T03:42:18;0.14;81.31
72380;SHT30;60354;47.798;12.472;2024-03-08T03:44:47;-0.14;81.10
72380;SHT30;60354;47.798;12.472;2024-03-08T03:47:14;-0.21;82.25
72380;SHT30;60354;47.798;12.472;2024-03-08T03:49:41;-0.28;82.23
72380;SHT30;60354;47.798;12.472;2024-03-08T03:52:06;-0.48;82.89
72380;SHT30;60354;47.798;12.472;2024-03-08T03:54:32;-0.47;82.64
72380;SHT30;60354;47.798;12.472;2024-03-08T03:56:59;-0.36;83.28
72380;SHT30;60354;47.798;12.472;2024-03-08T03:59:26;-0.17;84.16
72380;SHT30;60354;47.798;12.472;2024-03-08T04:01:53;-0.14;84.32
72380;SHT30;60354;47.798;12.472;2024-03-08T04:04:18;-0.10;83.93
72380;SHT30;60354;47.798;12.472;2024-03-08T04:06:44;-0.14;84.60
72380;SHT30;60354;47.798;12.472;2024-03-08T04:09:10;-0.21;83.31
72380;SHT30;60354;47.798;12.472;2024-03-08T04:11:36;-0.51;86.08
72380;SHT30;60354;47.798;12.472;2024-03-08T04:14:02;-0.62;86.51
72380;SHT30;60354;47.798;12.472;2024-03-08T04:16:27;-0.51;87.06
72380;SHT30;60354;47.798;12.472;2024-03-08T04:18:53;-0.50;85.52
72380;SHT30;60354;47.798;12.472;2024-03-08T04:21:19;-0.36;86.11
72380;SHT30;60354;47.798;12.472;2024-03-08T04:23:45;-0.48;87.12
72380;SHT30;60354;47.798;12.472;2024-03-08T04:26:11;-0.36;86.83
72380;SHT30;60354;47.798;12.472;2024-03-08T04:28:36;-0.60;86.85
72380;SHT30;60354;47.798;12.472;2024-03-08T04:31:03;-0.58;86.93
72380;SHT30;60354;47.798;12.472;2024-03-08T04:33:28;-0.64;86.84
72380;SHT30;60354;47.798;12.472;2024-03-08T04:35:54;-0.57;87.35
72380;SHT30;60354;47.798;12.472;2024-03-08T04:38:19;-0.64;86.30
72380;SHT30;60354;47.798;12.472;2024-03-08T04:40:45;-0.67;88.03
72380;SHT30;60354;47.798;12.472;2024-03-08T04:43:10;-0.86;88.57
72380;SHT30;60354;47.798;12.472;2024-03-08T04:45:36;-0.72;88.41
72380;SHT30;60354;47.798;12.472;2024-03-08T04:48:02;-0.85;87.71
72380;SHT30;60354;47.798;12.472;2024-03-08T04:50:28;-0.84;89.27
72380;SHT30;60354;47.798;12.472;2024-03-08T04:52:56;-0.86;89.45
72380;SHT30;60354;47.798;12.472;2024-03-08T04:55:21;-0.67;89.03
72380;SHT30;60354;47.798;12.472;2024-03-08T04:57:48;-0.84;88.92
72380;SHT30;60354;47.798;12.472;2024-03-08T05:00:14;-0.92;88.81
72380;SHT30;60354;47.798;12.472;2024-03-08T05:02:41;-1.00;88.87
72380;SHT30;60354;47.798;12.472;2024-03-08T05:05:07;-0.91;88.86
72380;SHT30;60354;47.798;12.472;2024-03-08T05:07:34;-0.98;89.72
72380;SHT30;60354;47.798;12.472;2024-03-08T05:10:00;-1.02;88.42
72380;SHT30;60354;47.798;12.472;2024-03-08T05:12:27;-0.98;87.94
72380;SHT30;60354;47.798;12.472;2024-03-08T05:14:53;-0.98;87.77
72380;SHT30;60354;47.798;12.472;2024-03-08T05:17:19;-0.76;87.82
72380;SHT30;60354;47.798;12.472;2024-03-08T05:19:44;-0.69;87.75
72380;SHT30;60354;47.798;12.472;2024-03-08T05:22:10;-0.81;88.49
72380;SHT30;60354;47.798;12.472;2024-03-08T05:24:35;-1.09;87.62
72380;SHT30;60354;47.798;12.472;2024-03-08T05:27:01;-1.03;88.66
72380;SHT30;60354;47.798;12.472;2024-03-08T05:29:29;-0.92;88.67
72380;SHT30;60354;47.798;12.472;2024-03-08T05:31:55;-1.00;88.34
72380;SHT30;60354;47.798;12.472;2024-03-08T05:34:21;-1.13;89.55
72380;SHT30;60354;47.798;12.472;2024-03-08T05:36:50;-1.10;89.21
72380;SHT30;60354;47.798;12.472;2024-03-08T05:39:16;-1.09;89.09
72380;SHT30;60354;47.798;12.472;2024-03-08T05:41:43;-1.12;89.24
72380;SHT30;60354;47.798;12.472;2024-03-08T05:44:09;-1.48;89.40
72380;SHT30;60354;47.798;12.472;2024-03-08T05:46:35;-1.42;91.24
72380;SHT30;60354;47.798;12.472;2024-03-08T05:49:04;-1.23;91.18
72380;SHT30;60354;47.798;12.472;2024-03-08T05:51:33;-1.25;90.44
72380;SHT30;60354;47.798;12.472;2024-03-08T05:54:01;-1.21;89.91
72380;SHT30;60354;47.798;12.472;2024-03-08T05:56:32;-1.21;89.59
72380;SHT30;60354;47.798;12.472;2024-03-08T05:58:57;-1.12;89.49
72380;SHT30;60354;47.798;12.472;2024-03-08T06:01:26;-1.03;89.58
72380;SHT30;60354;47.798;12.472;2024-03-08T06:03:56;-1.02;91.07
72380;SHT30;60354;47.798;12.472;2024-03-08T06:06:22;-0.95;89.72
72380;SHT30;60354;47.798;12.472;2024-03-08T06:08:48;-1.03;89.04
72380;SHT30;60354;47.798;12.472;2024-03-08T06:11:15;-0.93;89.18
72380;SHT30;60354;47.798;12.472;2024-03-08T06:13:40;-0.93;89.29
72380;SHT30;60354;47.798;12.472;2024-03-08T06:16:06;-0.95;89.23
72380;SHT30;60354;47.798;12.472;2024-03-08T06:18:36;-0.89;90.00
72380;SHT30;60354;47.798;12.472;2024-03-08T06:21:05;-0.82;89.37
72380;SHT30;60354;47.798;12.472;2024-03-08T06:23:34;-0.88;89.04
72380;SHT30;60354;47.798;12.472;2024-03-08T06:26:09;-0.84;89.70
72380;SHT30;60354;47.798;12.472;2024-03-08T06:28:34;-0.71;88.61
72380;SHT30;60354;47.798;12.472;2024-03-08T06:31:00;-0.71;88.96
72380;SHT30;60354;47.798;12.472;2024-03-08T06:33:26;-0.74;89.05
72380;SHT30;60354;47.798;12.472;2024-03-08T06:35:53;-0.69;89.85
72380;SHT30;60354;47.798;12.472;2024-03-08T06:38:19;-0.61;89.00
72380;SHT30;60354;47.798;12.472;2024-03-08T06:40:45;-0.61;87.72
72380;SHT30;60354;47.798;12.472;2024-03-08T06:43:14;-0.71;87.95
72380;SHT30;60354;47.798;12.472;2024-03-08T06:45:43;-0.67;88.33
72380;SHT30;60354;47.798;12.472;2024-03-08T06:48:19;-0.60;88.74
72380;SHT30;60354;47.798;12.472;2024-03-08T06:50:46;-0.27;87.98
72380;SHT30;60354;47.798;12.472;2024-03-08T06:53:12;-0.18;87.39
72380;SHT30;60354;47.798;12.472;2024-03-08T06:55:39;-0.14;86.39
72380;SHT30;60354;47.798;12.472;2024-03-08T06:58:05;-0.03;86.57
72380;SHT30;60354;47.798;12.472;2024-03-08T07:00:32;0.04;86.88
72380;SHT30;60354;47.798;12.472;2024-03-08T07:02:58;0.21;86.66
72380;SHT30;60354;47.798;12.472;2024-03-08T07:05:29;0.22;86.26
72380;SHT30;60354;47.798;12.472;2024-03-08T07:07:55;0.31;86.09
72380;SHT30;60354;47.798;12.472;2024-03-08T07:10:24;0.59;85.57
72380;SHT30;60354;47.798;12.472;2024-03-08T07:12:53;0.68;85.28
72380;SHT30;60354;47.798;12.472;2024-03-08T07:15:19;0.72;85.30
72380;SHT30;60354;47.798;12.472;2024-03-08T07:17:46;0.96;85.59
72380;SHT30;60354;47.798;12.472;2024-03-08T07:20:12;0.97;84.77
72380;SHT30;60354;47.798;12.472;2024-03-08T07:22:39;1.20;85.29
72380;SHT30;60354;47.798;12.472;2024-03-08T07:25:08;1.28;85.19
72380;SHT30;60354;47.798;12.472;2024-03-08T07:27:52;1.45;84.79
72380;SHT30;60354;47.798;12.472;2024-03-08T07:30:18;1.47;84.43
72380;SHT30;60354;47.798;12.472;2024-03-08T07:33:03;1.69;83.99
72380;SHT30;60354;47.798;12.472;2024-03-08T07:35:29;1.79;83.96
72380;SHT30;60354;47.798;12.472;2024-03-08T07:37:55;1.99;83.78
72380;SHT30;60354;47.798;12.472;2024-03-08T07:40:23;2.17;83.36
72380;SHT30;60354;47.798;12.472;2024-03-08T07:42:52;2.15;83.07
72380;SHT30;60354;47.798;12.472;2024-03-08T07:45:17;2.34;83.09
72380;SHT30;60354;47.798;12.472;2024-03-08T07:47:43;2.50;82.56
72380;SHT30;60354;47.798;12.472;2024-03-08T07:50:09;2.65;82.78
72380;SHT30;60354;47.798;12.472;2024-03-08T07:52:35;2.80;82.13
72380;SHT30;60354;47.798;12.472;2024-03-08T07:55:02;2.67;81.28
72380;SHT30;60354;47.798;12.472;2024-03-08T07:57:29;2.88;82.00
72380;SHT30;60354;47.798;12.472;2024-03-08T07:59:55;3.12;81.62
72380;SHT30;60354;47.798;12.472;2024-03-08T08:02:20;3.36;81.53
72380;SHT30;60354;47.798;12.472;2024-03-08T08:04:46;3.36;80.94
72380;SHT30;60354;47.798;12.472;2024-03-08T08:07:11;3.57;79.94
72380;SHT30;60354;47.798;12.472;2024-03-08T08:09:37;3.66;79.77
72380;SHT30;60354;47.798;12.472;2024-03-08T08:12:03;3.79;79.95
72380;SHT30;60354;47.798;12.472;2024-03-08T08:14:29;3.86;79.72
72380;SHT30;60354;47.798;12.472;2024-03-08T08:16:56;3.90;79.11
72380;SHT30;60354;47.798;12.472;2024-03-08T08:19:23;4.08;79.74
72380;SHT30;60354;47.798;12.472;2024-03-08T08:21:48;4.34;78.82
72380;SHT30;60354;47.798;12.472;2024-03-08T08:24:14;4.55;79.04
72380;SHT30;60354;47.798;12.472;2024-03-08T08:26:40;4.68;78.27
72380;SHT30;60354;47.798;12.472;2024-03-08T08:29:06;5.04;77.92
72380;SHT30;60354;47.798;12.472;2024-03-08T08:31:32;5.27;77.31
72380;SHT30;60354;47.798;12.472;2024-03-08T08:33:58;5.26;77.34
72380;SHT30;60354;47.798;12.472;2024-03-08T08:36:24;5.50;76.95
72380;SHT30;60354;47.798;12.472;2024-03-08T08:38:50;5.62;75.97
72380;SHT30;60354;47.798;12.472;2024-03-08T08:41:15;5.59;76.18
72380;SHT30;60354;47.798;12.472;2024-03-08T08:43:43;5.85;76.33
72380;SHT30;60354;47.798;12.472;2024-03-08T08:46:10;5.95;74.94
72380;SHT30;60354;47.798;12.472;2024-03-08T08:48:41;6.16;74.81
72380;SHT30;60354;47.798;12.472;2024-03-08T08:51:09;6.31;74.35
72380;SHT30;60354;47.798;12.472;2024-03-08T08:53:38;6.30;74.24
72380;SHT30;60354;47.798;12.472;2024-03-08T08:56:06;6.45;73.87
72380;SHT30;60354;47.798;12.472;2024-03-08T08:58:33;6.64;72.65
72380;SHT30;60354;47.798;12.472;2024-03-08T09:00:58;6.61;72.15
72380;SHT30;60354;47.798;12.472;2024-03-08T09:03:25;6.84;72.53
72380;SHT30;60354;47.798;12.472;2024-03-08T09:05:52;6.78;70.57
72380;SHT30;60354;47.798;12.472;2024-03-08T09:08:18;6.92;71.14
72380;SHT30;60354;47.798;12.472;2024-03-08T09:10:43;7.19;71.29
72380;SHT30;60354;47.798;12.472;2024-03-08T09:13:09;7.33;71.96
72380;SHT30;60354;47.798;12.472;2024-03-08T09:15:35;7.23;71.02
72380;SHT30;60354;47.798;12.472;2024-03-08T09:18:01;7.33;70.84
72380;SHT30;60354;47.798;12.472;2024-03-08T09:20:27;7.52;70.87
72380;SHT30;60354;47.798;12.472;2024-03-08T09:22:53;7.80;69.24
72380;SHT30;60354;47.798;12.472;2024-03-08T09:25:19;7.53;69.67
72380;SHT30;60354;47.798;12.472;2024-03-08T09:27:45;7.75;69.55
72380;SHT30;60354;47.798;12.472;2024-03-08T09:30:11;7.81;68.25
72380;SHT30;60354;47.798;12.472;2024-03-08T09:32:38;7.94;67.96
72380;SHT30;60354;47.798;12.472;2024-03-08T09:35:04;7.88;67.60
72380;SHT30;60354;47.798;12.472;2024-03-08T09:37:33;7.90;67.39
72380;SHT30;60354;47.798;12.472;2024-03-08T09:39:59;7.78;67.20
72380;SHT30;60354;47.798;12.472;2024-03-08T09:42:24;7.69;68.13
72380;SHT30;60354;47.798;12.472;2024-03-08T09:44:50;7.88;68.23
72380;SHT30;60354;47.798;12.472;2024-03-08T09:47:17;8.02;66.66
72380;SHT30;60354;47.798;12.472;2024-03-08T09:49:43;8.35;66.71
72380;SHT30;60354;47.798;12.472;2024-03-08T09:52:09;8.33;66.85
72380;SHT30;60354;47.798;12.472;2024-03-08T09:54:35;8.56;66.18
72380;SHT30;60354;47.798;12.472;2024-03-08T09:57:03;8.50;65.19
72380;SHT30;60354;47.798;12.472;2024-03-08T09:59:29;8.67;66.60
72380;SHT30;60354;47.798;12.472;2024-03-08T10:02:01;8.74;66.53
72380;SHT30;60354;47.798;12.472;2024-03-08T10:04:30;8.63;67.75
72380;SHT30;60354;47.798;12.472;2024-03-08T10:07:01;8.49;67.95
72380;SHT30;60354;47.798;12.472;2024-03-08T10:09:26;8.67;67.85
72380;SHT30;60354;47.798;12.472;2024-03-08T10:11:57;8.69;67.94
72380;SHT30;60354;47.798;12.472;2024-03-08T10:14:24;8.97;67.25
72380;SHT30;60354;47.798;12.472;2024-03-08T10:16:49;9.18;65.96
72380;SHT30;60354;47.798;12.472;2024-03-08T10:19:15;9.31;65.61
72380;SHT30;60354;47.798;12.472;2024-03-08T10:21:50;8.97;66.24
72380;SHT30;60354;47.798;12.472;2024-03-08T10:24:19;8.94;66.39
72380;SHT30;60354;47.798;12.472;2024-03-08T10:26:44;8.93;65.93
72380;SHT30;60354;47.798;12.472;2024-03-08T10:29:10;9.04;66.57
72380;SHT30;60354;47.798;12.472;2024-03-08T10:31:43;9.10;65.93
72380;SHT30;60354;47.798;12.472;2024-03-08T10:34:09;9.13;66.01
72380;SHT30;60354;47.798;12.472;2024-03-08T10:36:35;9.34;64.63
72380;SHT30;60354;47.798;12.472;2024-03-08T10:39:03;9.49;64.72
72380;SHT30;60354;47.798;12.472;2024-03-08T10:41:36;9.39;63.63
72380;SHT30;60354;47.798;12.472;2024-03-08T10:44:26;9.24;64.66
72380;SHT30;60354;47.798;12.472;2024-03-08T10:47:03;9.18;64.11
72380;SHT30;60354;47.798;12.472;2024-03-08T10:49:41;9.32;64.90
72380;SHT30;60354;47.798;12.472;2024-03-08T10:52:11;9.46;64.57
72380;SHT30;60354;47.798;12.472;2024-03-08T10:54:37;9.39;64.25
72380;SHT30;60354;47.798;12.472;2024-03-08T10:57:06;9.25;63.67
72380;SHT30;60354;47.798;12.472;2024-03-08T10:59:34;9.51;63.10
72380;SHT30;60354;47.798;12.472;2024-03-08T11:02:00;9.61;63.91
72380;SHT30;60354;47.798;12.472;2024-03-08T11:04:26;9.46;63.54
72380;SHT30;60354;47.798;12.472;2024-03-08T11:07:00;9.41;62.65
72380;SHT30;60354;47.798;12.472;2024-03-08T11:09:31;9.63;62.40
72380;SHT30;60354;47.798;12.472;2024-03-08T11:12:24;9.62;61.89
72380;SHT30;60354;47.798;12.472;2024-03-08T11:14:52;9.66;61.94
72380;SHT30;60354;47.798;12.472;2024-03-08T11:17:44;9.95;63.31
72380;SHT30;60354;47.798;12.472;2024-03-08T11:22:41;10.13;61.49
72380;SHT30;60354;47.798;12.472;2024-03-08T11:25:31;10.02;62.50
72380;SHT30;60354;47.798;12.472;2024-03-08T11:28:15;10.12;62.94
72380;SHT30;60354;47.798;12.472;2024-03-08T11:33:31;10.38;61.90
72380;SHT30;60354;47.798;12.472;2024-03-08T11:36:13;10.38;61.94
72380;SHT30;60354;47.798;12.472;2024-03-08T11:38:45;10.57;59.65
72380;SHT30;60354;47.798;12.472;2024-03-08T11:41:17;10.50;60.35
72380;SHT30;60354;47.798;12.472;2024-03-08T11:43:43;10.40;60.28
72380;SHT30;60354;47.798;12.472;2024-03-08T11:46:14;10.26;60.30
72380;SHT30;60354;47.798;12.472;2024-03-08T11:48:44;10.43;61.54
72380;SHT30;60354;47.798;12.472;2024-03-08T11:51:14;10.38;60.12
72380;SHT30;60354;47.798;12.472;2024-03-08T11:53:40;10.48;60.91
72380;SHT30;60354;47.798;12.472;2024-03-08T11:56:13;10.53;60.11
72380;SHT30;60354;47.798;12.472;2024-03-08T11:58:40;10.53;60.84
72380;SHT30;60354;47.798;12.472;2024-03-08T12:01:10;10.36;60.81
72380;SHT30;60354;47.798;12.472;2024-03-08T12:03:39;10.38;61.40
72380;SHT30;60354;47.798;12.472;2024-03-08T12:06:05;10.38;61.23
72380;SHT30;60354;47.798;12.472;2024-03-08T12:08:31;10.47;61.27
72380;SHT30;60354;47.798;12.472;2024-03-08T12:10:57;10.37;60.24
72380;SHT30;60354;47.798;12.472;2024-03-08T12:13:34;10.47;61.22
72380;SHT30;60354;47.798;12.472;2024-03-08T12:16:06;10.40;61.19
72380;SHT30;60354;47.798;12.472;2024-03-08T12:18:37;10.44;61.06
72380;SHT30;60354;47.798;12.472;2024-03-08T12:21:12;10.33;61.57
72380;SHT30;60354;47.798;12.472;2024-03-08T12:23:45;10.47;61.10
72380;SHT30;60354;47.798;12.472;2024-03-08T12:28:39;10.41;60.82
72380;SHT30;60354;47.798;12.472;2024-03-08T12:31:06;10.55;61.33
72380;SHT30;60354;47.798;12.472;2024-03-08T12:33:37;10.54;61.14
72380;SHT30;60354;47.798;12.472;2024-03-08T12:36:03;10.47;60.77
72380;SHT30;60354;47.798;12.472;2024-03-08T12:38:32;10.48;59.86
72380;SHT30;60354;47.798;12.472;2024-03-08T12:40:58;10.38;60.84
72380;SHT30;60354;47.798;12.472;2024-03-08T12:43:24;10.16;61.25
72380;SHT30;60354;47.798;12.472;2024-03-08T12:45:50;10.23;61.63
72380;SHT30;60354;47.798;12.472;2024-03-08T12:48:15;10.40;61.47
72380;SHT30;60354;47.798;12.472;2024-03-08T12:50:41;10.47;61.73
72380;SHT30;60354;47.798;12.472;2024-03-08T12:53:10;10.55;61.90
72380;SHT30;60354;47.798;12.472;2024-03-08T12:55:36;10.64;60.85
72380;SHT30;60354;47.798;12.472;2024-03-08T12:58:02;10.55;61.80
72380;SHT30;60354;47.798;12.472;2024-03-08T13:00:27;10.51;62.34
72380;SHT30;60354;47.798;12.472;2024-03-08T13:02:53;10.58;62.14
72380;SHT30;60354;47.798;12.472;2024-03-08T13:05:19;10.53;62.38
72380;SHT30;60354;47.798;12.472;2024-03-08T13:07:46;10.67;63.15
72380;SHT30;60354;47.798;12.472;2024-03-08T13:10:13;10.58;62.51
72380;SHT30;60354;47.798;12.472;2024-03-08T13:12:43;10.55;62.05
72380;SHT30;60354;47.798;12.472;2024-03-08T13:15:09;10.48;62.05
72380;SHT30;60354;47.798;12.472;2024-03-08T13:17:46;10.54;63.63
72380;SHT30;60354;47.798;12.472;2024-03-08T13:20:13;10.53;62.45
72380;SHT30;60354;47.798;12.472;2024-03-08T13:22:43;10.53;62.22
72380;SHT30;60354;47.798;12.472;2024-03-08T13:25:08;10.60;61.92
72380;SHT30;60354;47.798;12.472;2024-03-08T13:27:41;10.54;62.19
72380;SHT30;60354;47.798;12.472;2024-03-08T13:30:09;10.54;62.64
72380;SHT30;60354;47.798;12.472;2024-03-08T13:32:41;10.63;62.19
72380;SHT30;60354;47.798;12.472;2024-03-08T13:35:12;10.53;61.71
72380;SHT30;60354;47.798;12.472;2024-03-08T13:37:42;10.54;62.18
72380;SHT30;60354;47.798;12.472;2024-03-08T13:40:09;10.58;61.87
72380;SHT30;60354;47.798;12.472;2024-03-08T13:42:42;10.36;61.92
72380;SHT30;60354;47.798;12.472;2024-03-08T13:45:11;10.18;62.33
72380;SHT30;60354;47.798;12.472;2024-03-08T13:47:37;10.20;63.55
72380;SHT30;60354;47.798;12.472;2024-03-08T13:50:05;10.30;62.15
72380;SHT30;60354;47.798;12.472;2024-03-08T13:52:33;10.16;62.25
72380;SHT30;60354;47.798;12.472;2024-03-08T13:55:00;10.10;61.85
72380;SHT30;60354;47.798;12.472;2024-03-08T13:57:26;10.20;62.83
72380;SHT30;60354;47.798;12.472;2024-03-08T13:59:52;10.34;63.40
72380;SHT30;60354;47.798;12.472;2024-03-08T14:02:18;10.26;62.74
72380;SHT30;60354;47.798;12.472;2024-03-08T14:04:44;10.12;63.49
72380;SHT30;60354;47.798;12.472;2024-03-08T14:07:09;10.20;63.74
72380;SHT30;60354;47.798;12.472;2024-03-08T14:09:36;10.26;64.12
72380;SHT30;60354;47.798;12.472;2024-03-08T14:12:09;10.30;63.31
72380;SHT30;60354;47.798;12.472;2024-03-08T14:14:35;10.29;63.41
72380;SHT30;60354;47.798;12.472;2024-03-08T14:17:03;10.18;63.13
72380;SHT30;60354;47.798;12.472;2024-03-08T14:19:29;10.26;63.49
72380;SHT30;60354;47.798;12.472;2024-03-08T14:21:59;10.23;63.84
72380;SHT30;60354;47.798;12.472;2024-03-08T14:24:25;10.16;63.45
72380;SHT30;60354;47.798;12.472;2024-03-08T14:26:50;10.20;64.08
72380;SHT30;60354;47.798;12.472;2024-03-08T14:29:16;10.17;64.23
72380;SHT30;60354;47.798;12.472;2024-03-08T14:31:43;10.27;64.63
72380;SHT30;60354;47.798;12.472;2024-03-08T14:34:09;10.26;64.12
72380;SHT30;60354;47.798;12.472;2024-03-08T14:36:34;10.27;63.57
72380;SHT30;60354;47.798;12.472;2024-03-08T14:39:00;10.33;64.31
72380;SHT30;60354;47.798;12.472;2024-03-08T14:41:25;10.34;64.66
72380;SHT30;60354;47.798;12.472;2024-03-08T14:43:52;10.26;63.60
72380;SHT30;60354;47.798;12.472;2024-03-08T14:46:19;10.29;64.21
72380;SHT30;60354;47.798;12.472;2024-03-08T14:48:49;10.32;64.30
72380;SHT30;60354;47.798;12.472;2024-03-08T14:51:17;10.21;63.71
72380;SHT30;60354;47.798;12.472;2024-03-08T14:53:45;10.23;64.45
72380;SHT30;60354;47.798;12.472;2024-03-08T14:56:11;10.27;63.03
72380;SHT30;60354;47.798;12.472;2024-03-08T14:58:47;10.29;63.05
72380;SHT30;60354;47.798;12.472;2024-03-08T15:01:17;10.27;62.58
72380;SHT30;60354;47.798;12.472;2024-03-08T15:03:47;10.33;63.64
72380;SHT30;60354;47.798;12.472;2024-03-08T15:06:13;10.24;62.98
72380;SHT30;60354;47.798;12.472;2024-03-08T15:08:40;10.24;62.57
72380;SHT30;60354;47.798;12.472;2024-03-08T15:11:06;10.26;63.13
72380;SHT30;60354;47.798;12.472;2024-03-08T15:13:35;10.20;61.72
72380;SHT30;60354;47.798;12.472;2024-03-08T15:16:11;10.20;62.87
72380;SHT30;60354;47.798;12.472;2024-03-08T15:18:42;10.23;62.37
72380;SHT30;60354;47.798;12.472;2024-03-08T15:21:12;10.23;62.05
72380;SHT30;60354;47.798;12.472;2024-03-08T15:23:37;10.26;62.15
72380;SHT30;60354;47.798;12.472;2024-03-08T15:26:07;10.17;62.19
72380;SHT30;60354;47.798;12.472;2024-03-08T15:28:33;10.14;62.50
72380;SHT30;60354;47.798;12.472;2024-03-08T15:31:03;10.12;62.77